createdAt,value
2022-12-05T00:01:25.988Z,96189.47
2022-12-05T00:03:57.235Z,96196.13
2022-12-05T00:06:26.963Z,96191.59
2022-12-05T00:08:53.956Z,96201.81
2022-12-05T00:11:25.025Z,96203.44
2022-12-05T00:13:54.472Z,96195.66
2022-12-05T00:16:24.295Z,96207.69
2022-12-05T00:18:52.313Z,96205.25
2022-12-05T00:21:25.886Z,96220.03
2022-12-05T00:23:55.407Z,96228.50
2022-12-05T00:26:23.070Z,96221.38
2022-12-05T00:28:50.304Z,96210.66
2022-12-05T00:31:21.541Z,96208.03
2022-12-05T00:33:49.139Z,96207.06
2022-12-05T00:36:20.373Z,96206.41
2022-12-05T00:38:47.755Z,96230.88
2022-12-05T00:41:19.093Z,96234.19
2022-12-05T00:43:46.537Z,96223.25
2022-12-05T00:46:26.571Z,96229.78
2022-12-05T00:48:56.054Z,96211.63
2022-12-05T00:51:29.787Z,96237.38
2022-12-05T00:54:02.134Z,96240.94
2022-12-05T00:56:30.696Z,96250.53
2022-12-05T00:58:59.075Z,96241.47
2022-12-05T01:01:38.619Z,96251.53
2022-12-05T01:04:14.810Z,96239.47
2022-12-05T01:06:43.133Z,96256.69
2022-12-05T01:09:14.422Z,96254.72
2022-12-05T01:11:42.509Z,96255.38
2022-12-05T01:14:19.310Z,96255.09
2022-12-05T01:16:49.013Z,96252.22
2022-12-05T01:19:23.851Z,96256.75
2022-12-05T01:21:51.138Z,96248.91
2022-12-05T01:24:19.947Z,96262.94
2022-12-05T01:26:48.262Z,96270.53
2022-12-05T01:29:18.243Z,96270.34
2022-12-05T01:31:45.838Z,96273.31
2022-12-05T01:34:16.012Z,96267.50
2022-12-05T01:36:43.075Z,96285.03
2022-12-05T01:39:12.058Z,96290.25
2022-12-05T01:41:43.836Z,96287.03
2022-12-05T01:44:13.515Z,96306.44
2022-12-05T01:46:47.551Z,96303.53
2022-12-05T01:49:32.489Z,96304.88
2022-12-05T01:52:04.919Z,96308.63
2022-12-05T01:54:32.053Z,96308.44
2022-12-05T01:57:03.374Z,96312.38
2022-12-05T01:59:37.093Z,96316.94
2022-12-05T02:02:04.978Z,96298.59
2022-12-05T02:04:35.926Z,96298.25
2022-12-05T02:07:02.704Z,96291.69
2022-12-05T02:09:29.490Z,96303.25
2022-12-05T02:12:01.237Z,96314.19
2022-12-05T02:15:16.375Z,96319.47
2022-12-05T02:18:32.145Z,96338.28
2022-12-05T02:21:48.183Z,96344.13
2022-12-05T02:24:51.083Z,96341.00
2022-12-05T02:27:50.540Z,96334.75
2022-12-05T02:30:23.552Z,96355.97
2022-12-05T02:33:12.014Z,96350.88
2022-12-05T02:35:44.581Z,96355.34
2022-12-05T02:38:25.096Z,96353.63
2022-12-05T02:41:40.652Z,96364.13
2022-12-05T02:44:18.967Z,96356.06
2022-12-05T02:46:48.793Z,96369.53
2022-12-05T02:49:23.220Z,96383.31
2022-12-05T02:51:56.862Z,96385.34
2022-12-05T02:54:29.709Z,96379.31
2022-12-05T02:56:59.405Z,96370.59
2022-12-05T02:59:26.344Z,96385.75
2022-12-05T03:01:53.302Z,96375.84
2022-12-05T03:04:23.697Z,96372.97
2022-12-05T03:07:20.861Z,96375.25
2022-12-05T03:09:59.726Z,96380.38
2022-12-05T03:12:32.562Z,96379.31
2022-12-05T03:15:17.546Z,96381.22
2022-12-05T03:18:13.380Z,96384.09
2022-12-05T03:20:48.458Z,96381.28
2022-12-05T03:23:24.558Z,96387.31
2022-12-05T03:26:12.087Z,96405.22
2022-12-05T03:29:26.009Z,96412.75
2022-12-05T03:32:24.802Z,96406.94
2022-12-05T03:35:12.249Z,96415.63
2022-12-05T03:38:01.027Z,96405.91
2022-12-05T03:40:35.172Z,96414.34
2022-12-05T03:43:14.588Z,96422.53
2022-12-05T03:46:12.023Z,96414.81
2022-12-05T03:49:17.063Z,96432.25
2022-12-05T03:52:14.192Z,96429.19
2022-12-05T03:54:56.842Z,96431.44
2022-12-05T03:57:36.274Z,96432.34
2022-12-05T04:00:09.445Z,96441.91
2022-12-05T04:02:45.795Z,96439.28
2022-12-05T04:05:45.035Z,96439.63
2022-12-05T04:08:29.707Z,96457.50
2022-12-05T04:11:03.469Z,96463.56
2022-12-05T04:14:09.295Z,96465.09
2022-12-05T04:17:04.668Z,96466.06
2022-12-05T04:20:10.402Z,96481.94
2022-12-05T04:22:38.369Z,96469.69
2022-12-05T04:25:27.704Z,96478.31
2022-12-05T04:28:21.224Z,96473.44
2022-12-05T04:31:07.253Z,96470.91
2022-12-05T04:33:50.489Z,96460.19
2022-12-05T04:36:32.549Z,96464.16
2022-12-05T04:39:05.622Z,96472.81
2022-12-05T04:41:43.111Z,96472.63
2022-12-05T04:44:14.841Z,96472.31
2022-12-05T04:46:45.040Z,96470.38
2022-12-05T04:49:17.583Z,96473.94
2022-12-05T04:51:47.034Z,96474.13
2022-12-05T04:54:25.368Z,96475.56
2022-12-05T04:57:01.245Z,96468.38
2022-12-05T04:59:28.379Z,96465.38
2022-12-05T05:02:02.154Z,96469.47
2022-12-05T05:04:51.497Z,96451.94
2022-12-05T05:07:19.726Z,96461.03
2022-12-05T05:09:46.505Z,96468.84
2022-12-05T05:12:18.802Z,96477.22
2022-12-05T05:14:46.136Z,96471.44
2022-12-05T05:17:13.032Z,96462.63
2022-12-05T05:19:39.828Z,96458.53
2022-12-05T05:22:06.629Z,96462.06
2022-12-05T05:24:33.513Z,96466.03
2022-12-05T05:27:00.326Z,96460.41
2022-12-05T05:29:27.176Z,96467.59
2022-12-05T05:31:54.008Z,96468.22
2022-12-05T05:34:20.806Z,96469.03
2022-12-05T05:36:52.619Z,96467.50
2022-12-05T05:39:19.526Z,96470.06
2022-12-05T05:41:46.531Z,96466.31
2022-12-05T05:44:13.383Z,96476.72
2022-12-05T05:46:40.404Z,96462.25
2022-12-05T05:49:07.299Z,96472.59
2022-12-05T05:51:34.231Z,96478.06
2022-12-05T05:54:01.428Z,96478.69
2022-12-05T05:56:29.922Z,96484.56
2022-12-05T05:59:00.675Z,96493.19
2022-12-05T06:01:29.576Z,96492.38
2022-12-05T06:03:57.803Z,96492.59
2022-12-05T06:06:25.276Z,96495.34
2022-12-05T06:08:52.114Z,96493.34
2022-12-05T06:11:27.005Z,96501.78
2022-12-05T06:13:56.223Z,96497.88
2022-12-05T06:16:23.632Z,96500.19
2022-12-05T06:18:51.802Z,96493.34
2022-12-05T06:21:18.650Z,96495.69
2022-12-05T06:23:45.883Z,96505.75
2022-12-05T06:26:16.913Z,96503.41
2022-12-05T06:28:44.359Z,96508.09
2022-12-05T06:31:15.756Z,96517.91
2022-12-05T06:33:43.322Z,96519.75
2022-12-05T06:36:14.163Z,96536.09
2022-12-05T06:38:42.496Z,96550.75
2022-12-05T06:41:15.755Z,96548.22
2022-12-05T06:43:42.957Z,96548.97
2022-12-05T06:46:12.808Z,96553.53
2022-12-05T06:48:39.847Z,96550.97
2022-12-05T06:51:11.028Z,96552.94
2022-12-05T06:53:38.431Z,96560.44
2022-12-05T06:56:08.165Z,96561.09
2022-12-05T06:58:35.097Z,96569.56
2022-12-05T07:01:20.433Z,96572.53
2022-12-05T07:03:49.361Z,96565.06
2022-12-05T07:06:17.216Z,96561.84
2022-12-05T07:08:44.984Z,96564.25
2022-12-05T07:11:12.166Z,96573.22
2022-12-05T07:13:39.096Z,96578.75
2022-12-05T07:16:07.321Z,96584.78
2022-12-05T07:18:35.728Z,96587.88
2022-12-05T07:21:12.849Z,96589.84
2022-12-05T07:23:41.805Z,96587.59
2022-12-05T07:26:11.915Z,96589.03
2022-12-05T07:28:38.674Z,96589.84
2022-12-05T07:31:09.864Z,96592.81
2022-12-05T07:33:37.879Z,96593.13
2022-12-05T07:36:15.043Z,96596.38
2022-12-05T07:38:42.526Z,96593.63
2022-12-05T07:41:20.707Z,96584.69
2022-12-05T07:43:47.565Z,96583.31
2022-12-05T07:46:14.531Z,96588.31
2022-12-05T07:48:41.460Z,96587.34
2022-12-05T07:51:10.763Z,96592.91
2022-12-05T07:53:39.181Z,96600.38
2022-12-05T07:56:08.564Z,96595.69
2022-12-05T07:58:36.221Z,96594.53
2022-12-05T08:01:12.770Z,96601.34
2022-12-05T08:03:39.832Z,96596.31
2022-12-05T08:06:13.465Z,96603.31
2022-12-05T08:08:40.410Z,96590.28
2022-12-05T08:11:11.530Z,96591.56
2022-12-05T08:13:38.869Z,96599.41
2022-12-05T08:16:10.679Z,96596.28
2022-12-05T08:18:37.853Z,96593.19
2022-12-05T08:21:09.369Z,96599.41
2022-12-05T08:23:37.612Z,96605.44
2022-12-05T08:26:14.203Z,96603.66
2022-12-05T08:28:42.608Z,96609.84
2022-12-05T08:31:16.640Z,96618.31
2022-12-05T08:33:44.299Z,96620.59
2022-12-05T08:36:15.446Z,96626.28
2022-12-05T08:38:44.319Z,96627.78
2022-12-05T08:41:14.681Z,96624.53
2022-12-05T08:43:41.916Z,96631.06
2022-12-05T08:46:09.107Z,96626.53
2022-12-05T08:48:36.761Z,96622.56
2022-12-05T08:51:10.407Z,96622.44
2022-12-05T08:53:44.072Z,96640.53
2022-12-05T08:56:12.564Z,96641.50
2022-12-05T08:58:40.077Z,96648.63
2022-12-05T09:01:09.209Z,96645.38
2022-12-05T09:03:36.464Z,96653.16
2022-12-05T09:06:21.524Z,96664.88
2022-12-05T09:08:49.932Z,96666.22
2022-12-05T09:11:25.917Z,96672.75
2022-12-05T09:13:55.440Z,96675.22
2022-12-05T09:16:36.858Z,96673.78
2022-12-05T09:19:05.333Z,96671.50
2022-12-05T09:21:32.974Z,96659.97
2022-12-05T09:24:00.926Z,96660.66
2022-12-05T09:26:30.264Z,96656.94
2022-12-05T09:28:57.472Z,96661.91
2022-12-05T09:31:27.228Z,96656.72
2022-12-05T09:33:54.979Z,96660.34
2022-12-05T09:36:25.759Z,96668.47
2022-12-05T09:38:54.366Z,96665.53
2022-12-05T09:42:08.027Z,96658.34
2022-12-05T09:45:15.081Z,96659.69
2022-12-05T09:48:01.736Z,96673.06
2022-12-05T09:50:33.812Z,96666.19
2022-12-05T09:53:09.453Z,96662.78
2022-12-05T09:55:49.926Z,96658.38
2022-12-05T09:58:42.871Z,96657.06
2022-12-05T10:01:38.922Z,96662.63
2022-12-05T10:04:25.756Z,96669.94
2022-12-05T10:07:27.255Z,96674.31
2022-12-05T10:10:28.551Z,96675.63
2022-12-05T10:13:27.610Z,96671.84
2022-12-05T10:16:00.983Z,96672.03
2022-12-05T10:18:46.728Z,96664.25
2022-12-05T10:21:19.703Z,96667.97
2022-12-05T10:24:04.062Z,96671.06
2022-12-05T10:26:52.852Z,96659.31
2022-12-05T10:29:35.588Z,96663.56
2022-12-05T10:32:32.758Z,96665.56
2022-12-05T10:35:21.699Z,96654.13
2022-12-05T10:37:53.254Z,96658.38
2022-12-05T10:40:21.150Z,96654.78
2022-12-05T10:42:49.800Z,96644.47
2022-12-05T10:45:23.265Z,96652.47
2022-12-05T10:47:55.653Z,96653.44
2022-12-05T10:50:36.748Z,96655.09
2022-12-05T10:53:05.434Z,96647.91
2022-12-05T10:56:00.081Z,96639.41
2022-12-05T10:58:30.500Z,96638.44
2022-12-05T11:01:14.015Z,96636.44
2022-12-05T11:03:43.391Z,96632.59
2022-12-05T11:06:30.076Z,96635.00
2022-12-05T11:09:14.531Z,96632.53
2022-12-05T11:11:41.382Z,96626.97
2022-12-05T11:14:24.892Z,96631.72
2022-12-05T11:16:58.159Z,96631.72
2022-12-05T11:19:32.972Z,96633.22
2022-12-05T11:22:00.584Z,96622.69
2022-12-05T11:24:31.941Z,96622.44
2022-12-05T11:27:20.906Z,96623.69
2022-12-05T11:30:19.115Z,96632.53
2022-12-05T11:32:46.095Z,96628.34
2022-12-05T11:35:12.861Z,96634.53
2022-12-05T11:37:56.094Z,96626.34
2022-12-05T11:40:39.412Z,96619.13
2022-12-05T11:43:46.994Z,96621.03
2022-12-05T11:46:31.952Z,96621.69
2022-12-05T11:49:42.461Z,96621.38
2022-12-05T11:52:26.819Z,96623.38
2022-12-05T11:55:17.001Z,96615.91
2022-12-05T11:57:52.943Z,96614.72
2022-12-05T12:00:40.757Z,96622.19
2022-12-05T12:03:52.634Z,96609.09
2022-12-05T12:06:32.707Z,96610.66
2022-12-05T12:09:42.648Z,96610.19
2022-12-05T12:12:57.702Z,96617.47
2022-12-05T12:16:08.784Z,96618.31
2022-12-05T12:18:55.275Z,96610.19
2022-12-05T12:21:55.825Z,96616.09
2022-12-05T12:24:41.838Z,96616.69
2022-12-05T12:27:36.069Z,96621.69
2022-12-05T12:30:44.327Z,96619.53
2022-12-05T12:33:38.222Z,96620.28
2022-12-05T12:36:35.489Z,96617.13
2022-12-05T12:39:14.201Z,96612.94
2022-12-05T12:41:52.841Z,96617.75
2022-12-05T12:45:06.588Z,96618.81
2022-12-05T12:48:08.555Z,96619.09
2022-12-05T12:50:44.115Z,96618.88
2022-12-05T12:53:56.067Z,96618.06
2022-12-05T12:57:08.128Z,96613.06
2022-12-05T13:00:10.805Z,96606.31
2022-12-05T13:02:51.215Z,96614.78
2022-12-05T13:05:36.176Z,96600.09
2022-12-05T13:08:24.949Z,96604.03
2022-12-05T13:10:53.719Z,96604.88
2022-12-05T13:13:28.833Z,96591.63
2022-12-05T13:16:00.876Z,96590.66
2022-12-05T13:18:28.342Z,96591.34
2022-12-05T13:20:58.876Z,96594.59
2022-12-05T13:23:29.864Z,96600.78
2022-12-05T13:26:00.118Z,96609.66
2022-12-05T13:28:34.692Z,96604.22
2022-12-05T13:31:03.956Z,96606.16
2022-12-05T13:33:49.866Z,96608.94
2022-12-05T13:36:40.519Z,96598.47
2022-12-05T13:39:46.235Z,96601.94
2022-12-05T13:42:27.832Z,96607.84
2022-12-05T13:44:58.977Z,96607.03
2022-12-05T13:48:00.610Z,96612.25
2022-12-05T13:50:52.866Z,96603.47
2022-12-05T13:53:33.222Z,96607.34
2022-12-05T13:56:06.068Z,96607.47
2022-12-05T13:58:57.206Z,96602.47
2022-12-05T14:01:27.042Z,96608.03
2022-12-05T14:03:59.695Z,96593.97
2022-12-05T14:06:38.516Z,96595.59
2022-12-05T14:09:50.185Z,96589.72
2022-12-05T14:12:16.868Z,96600.38
2022-12-05T14:14:56.566Z,96593.66
2022-12-05T14:17:43.942Z,96592.97
2022-12-05T14:20:29.784Z,96601.47
2022-12-05T14:23:27.258Z,96595.59
2022-12-05T14:26:19.046Z,96602.00
2022-12-05T14:28:57.591Z,96608.03
2022-12-05T14:31:58.416Z,96608.03
2022-12-05T14:34:35.389Z,96620.78
2022-12-05T14:37:17.551Z,96621.41
2022-12-05T14:39:47.161Z,96615.38
2022-12-05T14:42:57.379Z,96606.72
2022-12-05T14:45:39.581Z,96602.50
2022-12-05T14:48:15.630Z,96615.56
2022-12-05T14:50:45.532Z,96617.88
2022-12-05T14:53:15.238Z,96620.75
2022-12-05T14:55:47.512Z,96620.94
2022-12-05T14:58:20.219Z,96626.03
2022-12-05T15:01:00.234Z,96631.91
2022-12-05T15:03:39.952Z,96632.38
2022-12-05T15:06:15.857Z,96638.44
2022-12-05T15:08:50.554Z,96626.66
2022-12-05T15:11:28.539Z,96635.16
2022-12-05T15:14:08.736Z,96635.31
2022-12-05T15:16:44.104Z,96633.50
2022-12-05T15:19:50.956Z,96637.75
2022-12-05T15:22:22.022Z,96633.69
2022-12-05T15:24:48.944Z,96626.00
2022-12-05T15:27:16.700Z,96624.56
2022-12-05T15:29:43.892Z,96620.59
2022-12-05T15:32:10.658Z,96627.97
2022-12-05T15:34:49.399Z,96621.41
2022-12-05T15:37:20.569Z,96616.53
2022-12-05T15:39:59.589Z,96613.63
2022-12-05T15:42:34.143Z,96607.56
2022-12-05T15:45:15.424Z,96614.47
2022-12-05T15:47:48.306Z,96623.13
2022-12-05T15:50:20.206Z,96629.63
2022-12-05T15:53:05.166Z,96630.94
2022-12-05T15:55:41.551Z,96641.88
2022-12-05T15:58:28.068Z,96634.84
2022-12-05T16:01:06.705Z,96645.81
2022-12-05T16:03:58.811Z,96652.81
2022-12-05T16:06:43.661Z,96650.53
2022-12-05T16:09:17.983Z,96651.66
2022-12-05T16:11:56.726Z,96653.94
2022-12-05T16:17:17.491Z,96661.97
2022-12-05T16:19:44.308Z,96654.13
2022-12-05T16:22:17.871Z,96657.72
2022-12-05T16:25:15.291Z,96648.88
2022-12-05T16:27:44.025Z,96654.44
2022-12-05T16:30:21.808Z,96656.06
2022-12-05T16:32:57.248Z,96659.34
2022-12-05T16:35:40.163Z,96659.03
2022-12-05T16:38:17.381Z,96658.03
2022-12-05T16:40:49.857Z,96658.03
2022-12-05T16:43:27.635Z,96652.50
2022-12-05T16:45:59.071Z,96658.72
2022-12-05T16:48:31.526Z,96656.09
2022-12-05T16:51:13.711Z,96660.03
2022-12-05T16:53:47.261Z,96669.16
2022-12-05T16:56:30.701Z,96672.06
2022-12-05T16:58:58.778Z,96669.66
2022-12-05T17:01:27.159Z,96674.53
2022-12-05T17:03:56.125Z,96667.84
2022-12-05T17:06:25.299Z,96670.16
2022-12-05T17:08:55.612Z,96672.72
2022-12-05T17:11:26.761Z,96672.72
2022-12-05T17:13:56.198Z,96670.63
2022-12-05T17:16:23.667Z,96667.84
2022-12-05T17:18:50.557Z,96672.09
2022-12-05T17:21:24.496Z,96671.44
2022-12-05T17:23:51.916Z,96672.09
2022-12-05T17:26:21.342Z,96671.91
2022-12-05T17:28:49.238Z,96673.06
2022-12-05T17:31:22.469Z,96676.81
2022-12-05T17:33:51.661Z,96674.69
2022-12-05T17:36:21.033Z,96673.72
2022-12-05T17:38:48.833Z,96685.81
2022-12-05T17:41:23.763Z,96685.81
2022-12-05T17:43:51.529Z,96673.72
2022-12-05T17:46:23.066Z,96678.94
2022-12-05T17:48:51.660Z,96683.66
2022-12-05T17:51:20.102Z,96688.06
2022-12-05T17:53:47.654Z,96688.59
2022-12-05T17:56:15.234Z,96678.94
2022-12-05T17:58:42.416Z,96689.41
2022-12-05T18:01:16.818Z,96691.34
2022-12-05T18:03:44.034Z,96685.16
2022-12-05T18:06:11.150Z,96693.94
2022-12-05T18:08:50.824Z,96696.91
2022-12-05T18:11:17.692Z,96692.97
2022-12-05T18:13:44.477Z,96691.66
2022-12-05T18:16:11.454Z,96694.78
2022-12-05T18:18:38.996Z,96686.75
2022-12-05T18:21:12.590Z,96696.91
2022-12-05T18:23:40.927Z,96697.88
2022-12-05T18:26:10.123Z,96693.16
2022-12-05T18:28:38.886Z,96698.19
2022-12-05T18:31:09.764Z,96707.19
2022-12-05T18:33:36.875Z,96708.00
2022-12-05T18:36:06.516Z,96694.13
2022-12-05T18:38:33.418Z,96700.81
2022-12-05T18:41:02.476Z,96698.84
2022-12-05T18:43:29.685Z,96689.22
2022-12-05T18:45:58.614Z,96684.47
2022-12-05T18:48:46.052Z,96684.16
2022-12-05T18:51:17.728Z,96681.88
2022-12-05T18:53:51.989Z,96683.50
2022-12-05T18:56:31.878Z,96676.63
2022-12-05T18:59:05.503Z,96681.22
2022-12-05T19:01:38.713Z,96685.78
2022-12-05T19:04:07.546Z,96687.09
2022-12-05T19:06:36.767Z,96688.88
2022-12-05T19:09:15.880Z,96683.16
2022-12-05T19:11:47.626Z,96685.44
2022-12-05T19:14:18.676Z,96685.28
2022-12-05T19:16:46.229Z,96700.50
2022-12-05T19:19:14.512Z,96691.69
2022-12-05T19:21:42.519Z,96705.38
2022-12-05T19:24:14.642Z,96710.28
2022-12-05T19:26:42.323Z,96704.72
2022-12-05T19:29:12.138Z,96707.00
2022-12-05T19:31:39.457Z,96709.63
2022-12-05T19:34:09.189Z,96697.53
2022-12-05T19:36:40.725Z,96698.50
2022-12-05T19:39:15.689Z,96701.13
2022-12-05T19:41:42.926Z,96703.09
2022-12-05T19:44:10.387Z,96692.66
2022-12-05T19:46:37.967Z,96694.28
2022-12-05T19:49:09.221Z,96702.41
2022-12-05T19:51:37.250Z,96696.56
2022-12-05T19:54:06.436Z,96703.41
2022-12-05T19:56:35.425Z,96709.63
2022-12-05T19:59:02.439Z,96703.72
2022-12-05T20:01:36.105Z,96702.41
2022-12-05T20:04:08.338Z,96696.56
2022-12-05T20:06:42.506Z,96696.84
2022-12-05T20:09:11.970Z,96700.47
2022-12-05T20:11:42.183Z,96701.28
2022-12-05T20:14:11.835Z,96703.06
2022-12-05T20:16:38.689Z,96703.56
2022-12-05T20:19:06.139Z,96700.47
2022-12-05T20:21:35.001Z,96696.69
2022-12-05T20:24:04.223Z,96697.84
2022-12-05T20:26:37.287Z,96685.25
2022-12-05T20:29:05.370Z,96690.66
2022-12-05T20:31:41.466Z,96676.78
2022-12-05T20:34:13.314Z,96689.31
2022-12-05T20:36:40.120Z,96674.00
2022-12-05T20:39:12.826Z,96686.06
2022-12-05T20:41:40.084Z,96678.22
2022-12-05T20:44:08.758Z,96683.44
2022-12-05T20:46:36.985Z,96692.56
2022-12-05T20:49:04.450Z,96673.13
2022-12-05T20:51:34.562Z,96683.38
2022-12-05T20:54:03.762Z,96673.94
2022-12-05T20:56:33.985Z,96677.00
2022-12-05T20:59:04.947Z,96671.97
2022-12-05T21:01:35.107Z,96670.31
2022-12-05T21:04:03.734Z,96675.22
2022-12-05T21:06:34.647Z,96674.19
2022-12-05T21:09:03.220Z,96672.06
2022-12-05T21:11:30.801Z,96669.31
2022-12-05T21:14:05.036Z,96667.69
2022-12-05T21:16:32.075Z,96667.97
2022-12-05T21:18:59.942Z,96659.53
2022-12-05T21:21:28.982Z,96652.97
2022-12-05T21:23:59.022Z,96664.03
2022-12-05T21:26:28.902Z,96671.00
2022-12-05T21:28:56.604Z,96667.06
2022-12-05T21:31:37.460Z,96671.13
2022-12-05T21:34:11.628Z,96677.97
2022-12-05T21:36:38.414Z,96679.59
2022-12-05T21:39:06.587Z,96672.75
2022-12-05T21:41:34.008Z,96676.31
2022-12-05T21:44:01.622Z,96682.88
2022-12-05T21:46:28.674Z,96682.88
2022-12-05T21:48:55.795Z,96686.13
2022-12-05T21:51:23.482Z,96685.63
2022-12-05T21:53:51.237Z,96690.03
2022-12-05T21:56:22.919Z,96679.91
2022-12-05T21:58:50.389Z,96700.75
2022-12-05T22:01:22.502Z,96699.47
2022-12-05T22:03:59.217Z,96700.44
2022-12-05T22:06:26.134Z,96695.88
2022-12-05T22:08:54.580Z,96692.09
2022-12-05T22:11:23.491Z,96699.44
2022-12-05T22:13:51.416Z,96701.63
2022-12-05T22:16:19.507Z,96698.75
2022-12-05T22:18:47.181Z,96694.84
2022-12-05T22:21:20.037Z,96694.34
2022-12-05T22:23:47.890Z,96700.72
2022-12-05T22:26:22.356Z,96701.38
2022-12-05T22:28:54.491Z,96705.75
2022-12-05T22:31:23.323Z,96701.38
2022-12-05T22:33:50.376Z,96714.41
2022-12-05T22:36:19.219Z,96708.22
2022-12-05T22:38:47.978Z,96696.47
2022-12-05T22:41:18.685Z,96696.28
2022-12-05T22:43:47.813Z,96700.66
2022-12-05T22:46:18.786Z,96703.94
2022-12-05T22:48:47.588Z,96702.94
2022-12-05T22:51:15.766Z,96701.56
2022-12-05T22:53:42.781Z,96700.59
2022-12-05T22:56:15.949Z,96697.50
2022-12-05T22:58:43.977Z,96696.69
2022-12-05T23:01:23.888Z,96688.19
2022-12-05T23:03:56.760Z,96682.69
2022-12-05T23:06:23.715Z,96688.19
2022-12-05T23:08:50.560Z,96686.28
2022-12-05T23:11:19.748Z,96682.38
2022-12-05T23:13:47.897Z,96677.78
2022-12-05T23:16:22.046Z,96669.28
2022-12-05T23:18:51.310Z,96667.31
2022-12-05T23:21:32.477Z,96669.28
2022-12-05T23:24:02.425Z,96663.75
2022-12-05T23:26:33.893Z,96673.19
2022-12-05T23:29:01.037Z,96666.34
2022-12-05T23:31:27.929Z,96674.50
2022-12-05T23:33:59.716Z,96668.81
2022-12-05T23:36:29.900Z,96674.50
2022-12-05T23:38:56.722Z,96667.38
2022-12-05T23:41:26.056Z,96675.84
2022-12-05T23:43:53.496Z,96675.53
2022-12-05T23:46:24.582Z,96677.84
2022-12-05T23:48:51.793Z,96671.47
2022-12-05T23:51:22.569Z,96673.25
2022-12-05T23:53:55.136Z,96667.06
2022-12-05T23:56:25.524Z,96667.91
2022-12-05T23:58:54.186Z,96670.03
